sensor_id;sensor_type;location;lat;lon;timestamp;temperature;humidity
30280;DHT22;17097;50.916;5.344;2023-04-24T00:00:41;11.20;99.90
30280;DHT22;17097;50.916;5.344;2023-04-24T00:03:07;11.20;99.90
30280;DHT22;17097;50.916;5.344;2023-04-24T00:05:33;11.20;99.90
30280;DHT22;17097;50.916;5.344;2023-04-24T00:07:59;11.20;99.90
30280;DHT22;17097;50.916;5.344;2023-04-24T00:10:25;11.20;99.90
30280;DHT22;17097;50.916;5.344;2023-04-24T00:12:51;11.10;99.90
30280;DHT22;17097;50.916;5.344;2023-04-24T00:15:16;11.20;99.90
30280;DHT22;17097;50.916;5.344;2023-04-24T00:17:42;11.20;99.90
30280;DHT22;17097;50.916;5.344;2023-04-24T00:20:10;11.00;99.90
30280;DHT22;17097;50.916;5.344;2023-04-24T00:22:40;11.00;99.90
30280;DHT22;17097;50.916;5.344;2023-04-24T00:25:06;11.00;99.90
30280;DHT22;17097;50.916;5.344;2023-04-24T00:27:32;11.10;99.90
30280;DHT22;17097;50.916;5.344;2023-04-24T00:29:57;11.00;99.90
30280;DHT22;17097;50.916;5.344;2023-04-24T00:32:23;11.10;99.90
30280;DHT22;17097;50.916;5.344;2023-04-24T00:34:51;11.00;99.90
30280;DHT22;17097;50.916;5.344;2023-04-24T00:37:17;10.90;99.90
30280;DHT22;17097;50.916;5.344;2023-04-24T00:39:42;10.90;99.90
30280;DHT22;17097;50.916;5.344;2023-04-24T00:42:08;10.90;99.90
30280;DHT22;17097;50.916;5.344;2023-04-24T00:44:36;11.00;99.90
30280;DHT22;17097;50.916;5.344;2023-04-24T00:47:01;11.00;99.90
30280;DHT22;17097;50.916;5.344;2023-04-24T00:49:29;11.00;99.90
30280;DHT22;17097;50.916;5.344;2023-04-24T00:51:55;11.00;99.90
30280;DHT22;17097;50.916;5.344;2023-04-24T00:54:22;11.00;99.90
30280;DHT22;17097;50.916;5.344;2023-04-24T00:56:48;10.90;99.90
30280;DHT22;17097;50.916;5.344;2023-04-24T00:59:16;11.00;99.90
30280;DHT22;17097;50.916;5.344;2023-04-24T01:01:44;11.10;99.90
30280;DHT22;17097;50.916;5.344;2023-04-24T01:04:13;11.10;99.90
30280;DHT22;17097;50.916;5.344;2023-04-24T01:06:40;11.10;99.90
30280;DHT22;17097;50.916;5.344;2023-04-24T01:09:07;11.00;99.90
30280;DHT22;17097;50.916;5.344;2023-04-24T01:11:39;11.00;99.90
30280;DHT22;17097;50.916;5.344;2023-04-24T01:14:06;10.90;99.90
30280;DHT22;17097;50.916;5.344;2023-04-24T01:16:35;10.90;99.90
30280;DHT22;17097;50.916;5.344;2023-04-24T01:19:01;10.90;99.90
30280;DHT22;17097;50.916;5.344;2023-04-24T01:21:29;10.90;99.90
30280;DHT22;17097;50.916;5.344;2023-04-24T01:23:58;11.00;99.90
30280;DHT22;17097;50.916;5.344;2023-04-24T01:26:24;11.10;99.90
30280;DHT22;17097;50.916;5.344;2023-04-24T01:28:51;11.00;99.90
30280;DHT22;17097;50.916;5.344;2023-04-24T01:31:16;11.00;99.90
30280;DHT22;17097;50.916;5.344;2023-04-24T01:33:42;10.90;99.90
30280;DHT22;17097;50.916;5.344;2023-04-24T01:36:12;10.90;99.90
30280;DHT22;17097;50.916;5.344;2023-04-24T01:38:38;11.00;99.90
30280;DHT22;17097;50.916;5.344;2023-04-24T01:41:04;10.90;99.90
30280;DHT22;17097;50.916;5.344;2023-04-24T01:43:30;10.90;99.90
30280;DHT22;17097;50.916;5.344;2023-04-24T01:45:58;10.90;99.90
30280;DHT22;17097;50.916;5.344;2023-04-24T01:48:24;10.90;99.90
30280;DHT22;17097;50.916;5.344;2023-04-24T01:50:50;10.90;99.90
30280;DHT22;17097;50.916;5.344;2023-04-24T01:53:15;10.90;99.90
30280;DHT22;17097;50.916;5.344;2023-04-24T01:55:41;10.80;99.90
30280;DHT22;17097;50.916;5.344;2023-04-24T01:58:07;10.80;99.90
30280;DHT22;17097;50.916;5.344;2023-04-24T02:00:32;10.90;99.90
30280;DHT22;17097;50.916;5.344;2023-04-24T02:02:58;10.90;99.90
30280;DHT22;17097;50.916;5.344;2023-04-24T02:05:24;11.00;99.90
30280;DHT22;17097;50.916;5.344;2023-04-24T02:07:49;10.80;99.90
30280;DHT22;17097;50.916;5.344;2023-04-24T02:10:17;10.80;99.90
30280;DHT22;17097;50.916;5.344;2023-04-24T02:12:43;10.90;99.90
30280;DHT22;17097;50.916;5.344;2023-04-24T02:15:09;10.80;99.90
30280;DHT22;17097;50.916;5.344;2023-04-24T02:17:38;10.70;99.90
30280;DHT22;17097;50.916;5.344;2023-04-24T02:20:04;10.80;99.90
30280;DHT22;17097;50.916;5.344;2023-04-24T02:22:30;10.80;99.90
30280;DHT22;17097;50.916;5.344;2023-04-24T02:24:56;10.70;99.90
30280;DHT22;17097;50.916;5.344;2023-04-24T02:27:21;10.70;99.90
30280;DHT22;17097;50.916;5.344;2023-04-24T02:29:47;10.80;99.90
30280;DHT22;17097;50.916;5.344;2023-04-24T02:32:13;10.80;99.90
30280;DHT22;17097;50.916;5.344;2023-04-24T02:34:43;10.60;99.90
30280;DHT22;17097;50.916;5.344;2023-04-24T02:37:11;10.60;99.90
30280;DHT22;17097;50.916;5.344;2023-04-24T02:39:36;10.60;99.90
30280;DHT22;17097;50.916;5.344;2023-04-24T02:42:02;10.50;99.90
30280;DHT22;17097;50.916;5.344;2023-04-24T02:44:28;10.50;99.90
30280;DHT22;17097;50.916;5.344;2023-04-24T02:46:56;10.50;99.90
30280;DHT22;17097;50.916;5.344;2023-04-24T02:49:22;10.40;99.90
30280;DHT22;17097;50.916;5.344;2023-04-24T02:51:47;10.30;99.90
30280;DHT22;17097;50.916;5.344;2023-04-24T02:54:15;10.40;99.90
30280;DHT22;17097;50.916;5.344;2023-04-24T02:56:43;10.40;99.90
30280;DHT22;17097;50.916;5.344;2023-04-24T02:59:09;10.20;99.90
30280;DHT22;17097;50.916;5.344;2023-04-24T03:01:35;10.30;99.90
30280;DHT22;17097;50.916;5.344;2023-04-24T03:04:02;10.40;99.90
30280;DHT22;17097;50.916;5.344;2023-04-24T03:06:28;10.30;99.90
30280;DHT22;17097;50.916;5.344;2023-04-24T03:08:54;10.30;99.90
30280;DHT22;17097;50.916;5.344;2023-04-24T03:11:20;10.20;99.90
30280;DHT22;17097;50.916;5.344;2023-04-24T03:13:46;10.20;99.90
30280;DHT22;17097;50.916;5.344;2023-04-24T03:16:12;10.10;99.90
30280;DHT22;17097;50.916;5.344;2023-04-24T03:18:38;10.10;99.90
30280;DHT22;17097;50.916;5.344;2023-04-24T03:21:04;10.20;99.90
30280;DHT22;17097;50.916;5.344;2023-04-24T03:23:30;10.30;99.90
30280;DHT22;17097;50.916;5.344;2023-04-24T03:25:57;10.30;99.90
30280;DHT22;17097;50.916;5.344;2023-04-24T03:28:28;10.30;99.90
30280;DHT22;17097;50.916;5.344;2023-04-24T03:30:56;10.30;99.90
30280;DHT22;17097;50.916;5.344;2023-04-24T03:33:22;10.30;99.90
30280;DHT22;17097;50.916;5.344;2023-04-24T03:35:48;10.30;99.90
30280;DHT22;17097;50.916;5.344;2023-04-24T03:38:14;10.20;99.90
30280;DHT22;17097;50.916;5.344;2023-04-24T03:40:40;10.00;99.90
30280;DHT22;17097;50.916;5.344;2023-04-24T03:43:07;10.10;99.90
30280;DHT22;17097;50.916;5.344;2023-04-24T03:45:32;10.20;99.90
30280;DHT22;17097;50.916;5.344;2023-04-24T03:48:00;10.10;99.90
30280;DHT22;17097;50.916;5.344;2023-04-24T03:50:26;10.10;99.90
30280;DHT22;17097;50.916;5.344;2023-04-24T03:52:52;10.00;99.90
30280;DHT22;17097;50.916;5.344;2023-04-24T03:55:18;10.10;99.90
30280;DHT22;17097;50.916;5.344;2023-04-24T03:57:44;10.10;99.90
30280;DHT22;17097;50.916;5.344;2023-04-24T04:00:10;10.10;99.90
30280;DHT22;17097;50.916;5.344;2023-04-24T04:02:36;10.00;99.90
30280;DHT22;17097;50.916;5.344;2023-04-24T04:05:05;9.90;99.90
30280;DHT22;17097;50.916;5.344;2023-04-24T04:07:31;10.00;99.90
30280;DHT22;17097;50.916;5.344;2023-04-24T04:09:57;10.10;99.90
30280;DHT22;17097;50.916;5.344;2023-04-24T04:12:23;10.10;99.90
30280;DHT22;17097;50.916;5.344;2023-04-24T04:14:51;10.10;99.90
30280;DHT22;17097;50.916;5.344;2023-04-24T04:17:17;10.00;99.90
30280;DHT22;17097;50.916;5.344;2023-04-24T04:19:43;10.00;99.90
30280;DHT22;17097;50.916;5.344;2023-04-24T04:22:11;10.00;99.90
30280;DHT22;17097;50.916;5.344;2023-04-24T04:24:37;10.00;99.90
30280;DHT22;17097;50.916;5.344;2023-04-24T04:27:05;10.00;99.90
30280;DHT22;17097;50.916;5.344;2023-04-24T04:29:31;10.10;99.90
30280;DHT22;17097;50.916;5.344;2023-04-24T04:31:57;10.00;99.90
30280;DHT22;17097;50.916;5.344;2023-04-24T04:34:23;10.10;99.90
30280;DHT22;17097;50.916;5.344;2023-04-24T04:36:51;10.00;99.90
30280;DHT22;17097;50.916;5.344;2023-04-24T04:39:16;10.00;99.90
30280;DHT22;17097;50.916;5.344;2023-04-24T04:41:46;10.00;99.90
30280;DHT22;17097;50.916;5.344;2023-04-24T04:44:15;9.90;99.90
30280;DHT22;17097;50.916;5.344;2023-04-24T04:46:41;9.90;99.90
30280;DHT22;17097;50.916;5.344;2023-04-24T04:49:07;9.90;99.90
30280;DHT22;17097;50.916;5.344;2023-04-24T04:51:34;9.70;99.90
30280;DHT22;17097;50.916;5.344;2023-04-24T04:54:00;9.70;99.90
30280;DHT22;17097;50.916;5.344;2023-04-24T04:56:28;9.90;99.90
30280;DHT22;17097;50.916;5.344;2023-04-24T04:58:54;9.80;99.90
30280;DHT22;17097;50.916;5.344;2023-04-24T05:01:20;9.90;99.90
30280;DHT22;17097;50.916;5.344;2023-04-24T05:03:46;10.00;99.90
30280;DHT22;17097;50.916;5.344;2023-04-24T05:06:12;10.10;99.90
30280;DHT22;17097;50.916;5.344;2023-04-24T05:08:37;10.00;99.90
30280;DHT22;17097;50.916;5.344;2023-04-24T05:11:03;9.90;99.90
30280;DHT22;17097;50.916;5.344;2023-04-24T05:13:29;9.90;99.90
30280;DHT22;17097;50.916;5.344;2023-04-24T05:15:55;10.00;99.90
30280;DHT22;17097;50.916;5.344;2023-04-24T05:18:20;10.00;99.90
30280;DHT22;17097;50.916;5.344;2023-04-24T05:20:46;10.00;99.90
30280;DHT22;17097;50.916;5.344;2023-04-24T05:23:12;10.00;99.90
30280;DHT22;17097;50.916;5.344;2023-04-24T05:25:41;10.30;99.90
30280;DHT22;17097;50.916;5.344;2023-04-24T05:28:08;10.20;99.90
30280;DHT22;17097;50.916;5.344;2023-04-24T05:30:34;10.10;99.90
30280;DHT22;17097;50.916;5.344;2023-04-24T05:33:00;10.00;99.90
30280;DHT22;17097;50.916;5.344;2023-04-24T05:35:27;10.00;99.90
30280;DHT22;17097;50.916;5.344;2023-04-24T05:37:53;10.00;99.90
30280;DHT22;17097;50.916;5.344;2023-04-24T05:40:21;9.80;99.90
30280;DHT22;17097;50.916;5.344;2023-04-24T05:42:47;9.90;99.90
30280;DHT22;17097;50.916;5.344;2023-04-24T05:45:13;9.90;99.90
30280;DHT22;17097;50.916;5.344;2023-04-24T05:47:45;10.00;99.90
30280;DHT22;17097;50.916;5.344;2023-04-24T05:50:11;10.00;99.90
30280;DHT22;17097;50.916;5.344;2023-04-24T05:52:37;10.00;99.90
30280;DHT22;17097;50.916;5.344;2023-04-24T05:55:05;9.90;99.90
30280;DHT22;17097;50.916;5.344;2023-04-24T05:57:31;9.60;99.90
30280;DHT22;17097;50.916;5.344;2023-04-24T05:59:57;9.60;99.90
30280;DHT22;17097;50.916;5.344;2023-04-24T06:02:23;9.70;99.90
30280;DHT22;17097;50.916;5.344;2023-04-24T06:04:49;9.70;99.90
30280;DHT22;17097;50.916;5.344;2023-04-24T06:07:19;9.60;99.90
30280;DHT22;17097;50.916;5.344;2023-04-24T06:09:45;9.60;99.90
30280;DHT22;17097;50.916;5.344;2023-04-24T06:12:11;9.50;99.90
30280;DHT22;17097;50.916;5.344;2023-04-24T06:14:37;9.40;99.90
30280;DHT22;17097;50.916;5.344;2023-04-24T06:17:03;9.30;99.90
30280;DHT22;17097;50.916;5.344;2023-04-24T06:19:29;9.20;99.90
30280;DHT22;17097;50.916;5.344;2023-04-24T06:21:55;9.20;99.90
30280;DHT22;17097;50.916;5.344;2023-04-24T06:24:21;9.30;99.90
30280;DHT22;17097;50.916;5.344;2023-04-24T06:26:47;9.20;99.90
30280;DHT22;17097;50.916;5.344;2023-04-24T06:29:13;9.30;99.90
30280;DHT22;17097;50.916;5.344;2023-04-24T06:31:38;9.10;99.90
30280;DHT22;17097;50.916;5.344;2023-04-24T06:34:04;9.30;99.90
30280;DHT22;17097;50.916;5.344;2023-04-24T06:36:31;9.20;99.90
30280;DHT22;17097;50.916;5.344;2023-04-24T06:38:59;9.00;99.90
30280;DHT22;17097;50.916;5.344;2023-04-24T06:41:26;9.00;99.90
30280;DHT22;17097;50.916;5.344;2023-04-24T06:43:52;9.00;99.90
30280;DHT22;17097;50.916;5.344;2023-04-24T06:46:17;9.20;99.90
30280;DHT22;17097;50.916;5.344;2023-04-24T06:48:44;8.90;99.90
30280;DHT22;17097;50.916;5.344;2023-04-24T06:51:09;9.00;99.90
30280;DHT22;17097;50.916;5.344;2023-04-24T06:53:35;8.90;99.90
30280;DHT22;17097;50.916;5.344;2023-04-24T06:56:03;8.90;99.90
30280;DHT22;17097;50.916;5.344;2023-04-24T06:58:30;9.10;99.90
30280;DHT22;17097;50.916;5.344;2023-04-24T07:00:56;9.10;99.90
30280;DHT22;17097;50.916;5.344;2023-04-24T07:03:21;9.00;99.90
30280;DHT22;17097;50.916;5.344;2023-04-24T07:05:48;8.90;99.90
30280;DHT22;17097;50.916;5.344;2023-04-24T07:08:14;9.10;99.90
30280;DHT22;17097;50.916;5.344;2023-04-24T07:10:43;9.30;99.90
30280;DHT22;17097;50.916;5.344;2023-04-24T07:13:09;9.40;99.90
30280;DHT22;17097;50.916;5.344;2023-04-24T07:15:35;9.50;99.90
30280;DHT22;17097;50.916;5.344;2023-04-24T07:18:01;9.60;99.90
30280;DHT22;17097;50.916;5.344;2023-04-24T07:20:27;9.70;99.90
30280;DHT22;17097;50.916;5.344;2023-04-24T07:22:53;9.80;99.90
30280;DHT22;17097;50.916;5.344;2023-04-24T07:25:19;9.90;99.90
30280;DHT22;17097;50.916;5.344;2023-04-24T07:27:47;10.00;99.90
30280;DHT22;17097;50.916;5.344;2023-04-24T07:30:14;10.10;99.90
30280;DHT22;17097;50.916;5.344;2023-04-24T07:32:40;9.90;99.90
30280;DHT22;17097;50.916;5.344;2023-04-24T07:35:06;9.90;99.90
30280;DHT22;17097;50.916;5.344;2023-04-24T07:37:37;9.80;99.90
30280;DHT22;17097;50.916;5.344;2023-04-24T07:40:04;9.80;99.90
30280;DHT22;17097;50.916;5.344;2023-04-24T07:42:30;9.80;99.90
30280;DHT22;17097;50.916;5.344;2023-04-24T07:44:56;9.90;99.90
30280;DHT22;17097;50.916;5.344;2023-04-24T07:47:22;9.80;99.90
30280;DHT22;17097;50.916;5.344;2023-04-24T07:49:47;9.80;99.90
30280;DHT22;17097;50.916;5.344;2023-04-24T07:52:14;9.80;99.90
30280;DHT22;17097;50.916;5.344;2023-04-24T07:54:40;9.80;99.90
30280;DHT22;17097;50.916;5.344;2023-04-24T07:57:06;9.90;99.90
30280;DHT22;17097;50.916;5.344;2023-04-24T07:59:33;9.90;99.90
30280;DHT22;17097;50.916;5.344;2023-04-24T08:02:02;9.90;99.90
30280;DHT22;17097;50.916;5.344;2023-04-24T08:04:28;9.90;99.90
30280;DHT22;17097;50.916;5.344;2023-04-24T08:06:54;9.90;99.90
30280;DHT22;17097;50.916;5.344;2023-04-24T08:09:20;9.90;99.90
30280;DHT22;17097;50.916;5.344;2023-04-24T08:11:46;10.00;99.90
30280;DHT22;17097;50.916;5.344;2023-04-24T08:14:12;10.00;99.90
30280;DHT22;17097;50.916;5.344;2023-04-24T08:16:43;10.10;99.90
30280;DHT22;17097;50.916;5.344;2023-04-24T08:19:09;10.00;99.90
30280;DHT22;17097;50.916;5.344;2023-04-24T08:21:35;10.10;99.90
30280;DHT22;17097;50.916;5.344;2023-04-24T08:24:01;9.90;99.90
30280;DHT22;17097;50.916;5.344;2023-04-24T08:26:30;9.80;99.90
30280;DHT22;17097;50.916;5.344;2023-04-24T08:28:57;9.60;99.90
30280;DHT22;17097;50.916;5.344;2023-04-24T08:31:24;9.80;99.90
30280;DHT22;17097;50.916;5.344;2023-04-24T08:33:50;9.80;99.90
30280;DHT22;17097;50.916;5.344;2023-04-24T08:36:16;9.90;99.90
30280;DHT22;17097;50.916;5.344;2023-04-24T08:38:42;10.00;99.90
30280;DHT22;17097;50.916;5.344;2023-04-24T08:41:11;10.00;99.90
30280;DHT22;17097;50.916;5.344;2023-04-24T08:43:37;10.10;99.90
30280;DHT22;17097;50.916;5.344;2023-04-24T08:46:04;10.10;99.90
30280;DHT22;17097;50.916;5.344;2023-04-24T08:48:31;10.40;99.90
30280;DHT22;17097;50.916;5.344;2023-04-24T08:50:59;10.40;99.90
30280;DHT22;17097;50.916;5.344;2023-04-24T08:53:27;10.50;99.90
30280;DHT22;17097;50.916;5.344;2023-04-24T08:55:55;10.30;99.90
30280;DHT22;17097;50.916;5.344;2023-04-24T08:58:22;10.40;99.90
30280;DHT22;17097;50.916;5.344;2023-04-24T09:00:48;10.40;99.90
30280;DHT22;17097;50.916;5.344;2023-04-24T09:03:16;10.50;99.90
30280;DHT22;17097;50.916;5.344;2023-04-24T09:05:47;10.50;99.90
30280;DHT22;17097;50.916;5.344;2023-04-24T09:08:19;10.50;99.90
30280;DHT22;17097;50.916;5.344;2023-04-24T09:10:46;10.50;99.90
30280;DHT22;17097;50.916;5.344;2023-04-24T09:13:14;10.50;99.90
30280;DHT22;17097;50.916;5.344;2023-04-24T09:15:41;10.40;99.90
30280;DHT22;17097;50.916;5.344;2023-04-24T09:18:09;10.60;99.90
30280;DHT22;17097;50.916;5.344;2023-04-24T09:21:06;10.60;99.90
30280;DHT22;17097;50.916;5.344;2023-04-24T09:23:33;10.40;99.90
30280;DHT22;17097;50.916;5.344;2023-04-24T09:26:00;10.20;99.90
30280;DHT22;17097;50.916;5.344;2023-04-24T09:28:32;10.20;99.90
30280;DHT22;17097;50.916;5.344;2023-04-24T09:31:09;10.40;99.90
30280;DHT22;17097;50.916;5.344;2023-04-24T09:33:35;10.60;99.90
30280;DHT22;17097;50.916;5.344;2023-04-24T09:36:02;10.70;99.90
30280;DHT22;17097;50.916;5.344;2023-04-24T09:38:36;11.10;99.90
30280;DHT22;17097;50.916;5.344;2023-04-24T09:41:06;11.50;99.90
30280;DHT22;17097;50.916;5.344;2023-04-24T09:43:34;11.70;99.90
30280;DHT22;17097;50.916;5.344;2023-04-24T09:46:07;11.70;99.90
30280;DHT22;17097;50.916;5.344;2023-04-24T09:48:35;11.80;99.90
30280;DHT22;17097;50.916;5.344;2023-04-24T09:51:02;12.40;99.90
30280;DHT22;17097;50.916;5.344;2023-04-24T09:53:30;12.70;99.90
30280;DHT22;17097;50.916;5.344;2023-04-24T09:56:02;12.90;99.90
30280;DHT22;17097;50.916;5.344;2023-04-24T09:58:29;13.00;99.90
30280;DHT22;17097;50.916;5.344;2023-04-24T10:00:56;13.20;99.90
30280;DHT22;17097;50.916;5.344;2023-04-24T10:03:26;13.00;99.90
30280;DHT22;17097;50.916;5.344;2023-04-24T10:06:01;12.70;99.90
30280;DHT22;17097;50.916;5.344;2023-04-24T10:08:33;12.50;99.90
30280;DHT22;17097;50.916;5.344;2023-04-24T10:11:00;12.40;99.90
30280;DHT22;17097;50.916;5.344;2023-04-24T10:13:26;12.30;99.90
30280;DHT22;17097;50.916;5.344;2023-04-24T10:15:53;12.30;99.90
30280;DHT22;17097;50.916;5.344;2023-04-24T10:18:20;12.50;99.90
30280;DHT22;17097;50.916;5.344;2023-04-24T10:20:47;13.10;99.90
30280;DHT22;17097;50.916;5.344;2023-04-24T10:23:13;13.40;99.90
30280;DHT22;17097;50.916;5.344;2023-04-24T10:25:39;13.60;99.90
30280;DHT22;17097;50.916;5.344;2023-04-24T10:28:05;13.10;99.90
30280;DHT22;17097;50.916;5.344;2023-04-24T10:30:33;13.30;99.90
30280;DHT22;17097;50.916;5.344;2023-04-24T10:33:01;13.00;99.90
30280;DHT22;17097;50.916;5.344;2023-04-24T10:35:34;13.00;99.90
30280;DHT22;17097;50.916;5.344;2023-04-24T10:38:09;12.90;99.90
30280;DHT22;17097;50.916;5.344;2023-04-24T10:40:37;13.00;99.90
30280;DHT22;17097;50.916;5.344;2023-04-24T10:43:04;13.30;99.90
30280;DHT22;17097;50.916;5.344;2023-04-24T10:45:37;13.40;99.90
30280;DHT22;17097;50.916;5.344;2023-04-24T10:48:09;13.30;99.90
30280;DHT22;17097;50.916;5.344;2023-04-24T10:50:52;13.50;99.90
30280;DHT22;17097;50.916;5.344;2023-04-24T10:53:21;13.50;99.90
30280;DHT22;17097;50.916;5.344;2023-04-24T10:56:12;13.60;99.90
30280;DHT22;17097;50.916;5.344;2023-04-24T10:58:42;13.30;99.90
30280;DHT22;17097;50.916;5.344;2023-04-24T11:01:41;13.50;99.90
30280;DHT22;17097;50.916;5.344;2023-04-24T11:04:32;13.30;99.90
30280;DHT22;17097;50.916;5.344;2023-04-24T11:06:58;13.60;99.90
30280;DHT22;17097;50.916;5.344;2023-04-24T11:09:28;13.30;99.90
30280;DHT22;17097;50.916;5.344;2023-04-24T11:12:08;13.10;99.90
30280;DHT22;17097;50.916;5.344;2023-04-24T11:14:59;12.80;99.90
30280;DHT22;17097;50.916;5.344;2023-04-24T11:17:30;12.90;99.90
30280;DHT22;17097;50.916;5.344;2023-04-24T11:20:09;13.00;99.90
30280;DHT22;17097;50.916;5.344;2023-04-24T11:22:37;12.90;99.90
30280;DHT22;17097;50.916;5.344;2023-04-24T11:25:05;12.70;99.90
30280;DHT22;17097;50.916;5.344;2023-04-24T11:27:41;12.80;99.90
30280;DHT22;17097;50.916;5.344;2023-04-24T11:30:09;12.60;99.90
30280;DHT22;17097;50.916;5.344;2023-04-24T11:32:37;13.00;99.90
30280;DHT22;17097;50.916;5.344;2023-04-24T11:35:12;12.50;99.90
30280;DHT22;17097;50.916;5.344;2023-04-24T11:37:41;12.60;99.90
30280;DHT22;17097;50.916;5.344;2023-04-24T11:40:10;12.70;99.90
30280;DHT22;17097;50.916;5.344;2023-04-24T11:42:47;12.60;99.90
30280;DHT22;17097;50.916;5.344;2023-04-24T11:45:15;12.70;99.90
30280;DHT22;17097;50.916;5.344;2023-04-24T11:47:42;12.90;99.90
30280;DHT22;17097;50.916;5.344;2023-04-24T11:50:12;13.00;99.90
30280;DHT22;17097;50.916;5.344;2023-04-24T11:52:39;13.40;99.90
30280;DHT22;17097;50.916;5.344;2023-04-24T11:55:24;13.50;99.90
30280;DHT22;17097;50.916;5.344;2023-04-24T11:57:56;13.70;99.90
30280;DHT22;17097;50.916;5.344;2023-04-24T12:00:30;13.90;99.90
30280;DHT22;17097;50.916;5.344;2023-04-24T12:03:11;13.90;99.90
30280;DHT22;17097;50.916;5.344;2023-04-24T12:05:38;13.90;99.90
30280;DHT22;17097;50.916;5.344;2023-04-24T12:08:05;14.00;99.90
30280;DHT22;17097;50.916;5.344;2023-04-24T12:10:32;13.50;99.90
30280;DHT22;17097;50.916;5.344;2023-04-24T12:12:59;13.70;99.90
30280;DHT22;17097;50.916;5.344;2023-04-24T12:15:26;14.00;99.90
30280;DHT22;17097;50.916;5.344;2023-04-24T12:17:54;14.00;99.90
30280;DHT22;17097;50.916;5.344;2023-04-24T12:20:31;14.00;99.90
30280;DHT22;17097;50.916;5.344;2023-04-24T12:22:59;13.80;99.90
30280;DHT22;17097;50.916;5.344;2023-04-24T12:25:27;13.60;99.90
30280;DHT22;17097;50.916;5.344;2023-04-24T12:28:10;13.50;99.90
30280;DHT22;17097;50.916;5.344;2023-04-24T12:30:44;13.40;99.90
30280;DHT22;17097;50.916;5.344;2023-04-24T12:33:10;13.50;99.90
30280;DHT22;17097;50.916;5.344;2023-04-24T12:35:36;13.50;99.90
30280;DHT22;17097;50.916;5.344;2023-04-24T12:38:10;13.90;99.90
30280;DHT22;17097;50.916;5.344;2023-04-24T12:40:36;13.90;99.90
30280;DHT22;17097;50.916;5.344;2023-04-24T12:43:19;14.00;99.90
30280;DHT22;17097;50.916;5.344;2023-04-24T12:45:47;14.00;99.90
30280;DHT22;17097;50.916;5.344;2023-04-24T12:48:13;14.00;99.90
30280;DHT22;17097;50.916;5.344;2023-04-24T12:50:39;14.10;99.90
30280;DHT22;17097;50.916;5.344;2023-04-24T12:53:07;14.10;99.90
30280;DHT22;17097;50.916;5.344;2023-04-24T12:55:34;14.20;99.90
30280;DHT22;17097;50.916;5.344;2023-04-24T12:58:00;14.00;99.90
30280;DHT22;17097;50.916;5.344;2023-04-24T13:00:27;13.80;99.90
30280;DHT22;17097;50.916;5.344;2023-04-24T13:02:53;13.90;99.90
30280;DHT22;17097;50.916;5.344;2023-04-24T13:05:19;13.60;99.90
30280;DHT22;17097;50.916;5.344;2023-04-24T13:07:47;13.70;99.90
30280;DHT22;17097;50.916;5.344;2023-04-24T13:10:13;14.10;99.90
30280;DHT22;17097;50.916;5.344;2023-04-24T13:12:39;14.40;99.90
30280;DHT22;17097;50.916;5.344;2023-04-24T13:15:06;14.60;99.90
30280;DHT22;17097;50.916;5.344;2023-04-24T13:17:32;14.50;99.90
30280;DHT22;17097;50.916;5.344;2023-04-24T13:19:58;14.40;99.90
30280;DHT22;17097;50.916;5.344;2023-04-24T13:22:24;14.50;99.90
30280;DHT22;17097;50.916;5.344;2023-04-24T13:24:51;14.70;99.90
30280;DHT22;17097;50.916;5.344;2023-04-24T13:27:17;14.90;99.90
30280;DHT22;17097;50.916;5.344;2023-04-24T13:29:43;15.00;99.90
30280;DHT22;17097;50.916;5.344;2023-04-24T13:32:09;15.00;99.90
30280;DHT22;17097;50.916;5.344;2023-04-24T13:34:37;14.90;99.90
30280;DHT22;17097;50.916;5.344;2023-04-24T13:37:04;14.80;99.90
30280;DHT22;17097;50.916;5.344;2023-04-24T13:39:30;15.00;99.90
30280;DHT22;17097;50.916;5.344;2023-04-24T13:41:57;15.00;99.90
30280;DHT22;17097;50.916;5.344;2023-04-24T13:44:23;15.00;99.90
30280;DHT22;17097;50.916;5.344;2023-04-24T13:46:52;15.60;99.90
30280;DHT22;17097;50.916;5.344;2023-04-24T13:49:20;16.10;99.90
30280;DHT22;17097;50.916;5.344;2023-04-24T13:51:46;16.20;99.90
30280;DHT22;17097;50.916;5.344;2023-04-24T13:54:13;16.40;99.90
30280;DHT22;17097;50.916;5.344;2023-04-24T13:56:42;16.00;99.90
30280;DHT22;17097;50.916;5.344;2023-04-24T13:59:08;16.10;99.90
30280;DHT22;17097;50.916;5.344;2023-04-24T14:01:35;15.40;99.90
30280;DHT22;17097;50.916;5.344;2023-04-24T14:04:03;15.20;99.90
30280;DHT22;17097;50.916;5.344;2023-04-24T14:06:29;15.30;99.90
30280;DHT22;17097;50.916;5.344;2023-04-24T14:08:55;15.40;99.90
30280;DHT22;17097;50.916;5.344;2023-04-24T14:11:21;15.30;99.90
30280;DHT22;17097;50.916;5.344;2023-04-24T14:13:47;14.90;99.90
30280;DHT22;17097;50.916;5.344;2023-04-24T14:16:15;14.70;99.90
30280;DHT22;17097;50.916;5.344;2023-04-24T14:18:41;14.70;99.90
30280;DHT22;17097;50.916;5.344;2023-04-24T14:21:07;15.00;99.90
30280;DHT22;17097;50.916;5.344;2023-04-24T14:23:33;15.20;99.90
30280;DHT22;17097;50.916;5.344;2023-04-24T14:26:02;15.60;99.90
30280;DHT22;17097;50.916;5.344;2023-04-24T14:28:27;15.60;99.90
30280;DHT22;17097;50.916;5.344;2023-04-24T14:30:56;15.70;99.90
30280;DHT22;17097;50.916;5.344;2023-04-24T14:33:24;16.10;99.90
30280;DHT22;17097;50.916;5.344;2023-04-24T14:35:50;16.30;99.90
30280;DHT22;17097;50.916;5.344;2023-04-24T14:38:15;16.40;99.90
30280;DHT22;17097;50.916;5.344;2023-04-24T14:40:41;16.30;99.90
30280;DHT22;17097;50.916;5.344;2023-04-24T14:43:07;16.10;99.90
30280;DHT22;17097;50.916;5.344;2023-04-24T14:45:33;16.40;99.90
30280;DHT22;17097;50.916;5.344;2023-04-24T14:47:58;16.40;99.90
30280;DHT22;17097;50.916;5.344;2023-04-24T14:50:24;16.30;99.90
30280;DHT22;17097;50.916;5.344;2023-04-24T14:52:56;16.30;99.90
30280;DHT22;17097;50.916;5.344;2023-04-24T14:55:27;16.70;99.90
30280;DHT22;17097;50.916;5.344;2023-04-24T14:57:53;16.70;99.90
30280;DHT22;17097;50.916;5.344;2023-04-24T15:00:19;16.60;99.90
30280;DHT22;17097;50.916;5.344;2023-04-24T15:02:48;16.20;99.90
30280;DHT22;17097;50.916;5.344;2023-04-24T15:05:16;16.20;99.90
30280;DHT22;17097;50.916;5.344;2023-04-24T15:07:42;16.00;99.90
30280;DHT22;17097;50.916;5.344;2023-04-24T15:10:08;15.60;99.90
30280;DHT22;17097;50.916;5.344;2023-04-24T15:12:35;15.80;99.90
30280;DHT22;17097;50.916;5.344;2023-04-24T15:15:01;16.00;99.90
30280;DHT22;17097;50.916;5.344;2023-04-24T15:17:26;16.00;99.90
30280;DHT22;17097;50.916;5.344;2023-04-24T15:19:52;15.70;99.90
30280;DHT22;17097;50.916;5.344;2023-04-24T15:22:18;15.60;99.90
30280;DHT22;17097;50.916;5.344;2023-04-24T15:24:44;15.40;99.90
30280;DHT22;17097;50.916;5.344;2023-04-24T15:27:11;15.40;99.90
30280;DHT22;17097;50.916;5.344;2023-04-24T15:29:38;15.10;99.90
30280;DHT22;17097;50.916;5.344;2023-04-24T15:32:04;15.00;99.90
30280;DHT22;17097;50.916;5.344;2023-04-24T15:34:30;14.90;99.90
30280;DHT22;17097;50.916;5.344;2023-04-24T15:36:57;14.90;99.90